Time;durP1;ratioP1;P1;durP2;ratioP2;P2;SDS_P1;SDS_P2;PMS_P1;PMS_P2;Temp;Humidity;BMP_temperature;BMP_pressure;BME280_temperature;BME280_humidity;BME280_pressure;Samples;Min_cycle;Max_cycle;Signal;HPM_P1;HPM_P2
2021/01/14 00:00:22;;;;;;;2.22;0.90;;;15.30;58.90;;;;;;5033920;28;20067;-47
2021/01/14 00:02:54;;;;;;;2.60;1.17;;;15.30;58.90;;;;;;5016167;28;20090;-47
2021/01/14 00:05:20;;;;;;;2.47;1.10;;;15.30;58.90;;;;;;5033687;28;20040;-46
2021/01/14 00:07:46;;;;;;;2.67;0.70;;;15.30;58.90;;;;;;5015616;28;20029;-48
2021/01/14 00:10:12;;;;;;;4.45;0.88;;;15.30;59.60;;;;;;5033631;28;20488;-48
2021/01/14 00:12:40;;;;;;;2.78;1.10;;;15.20;58.90;;;;;;5033332;28;20480;-47
2021/01/14 00:15:07;;;;;;;3.50;1.27;;;15.20;59.00;;;;;;5032695;28;20032;-46
2021/01/14 00:17:33;;;;;;;2.88;1.00;;;15.20;59.00;;;;;;5015294;28;20048;-46
2021/01/14 00:19:59;;;;;;;2.45;0.63;;;15.20;59.00;;;;;;5033324;28;20096;-47
2021/01/14 00:22:25;;;;;;;2.72;0.90;;;15.20;59.00;;;;;;5033575;28;20030;-48
2021/01/14 00:24:51;;;;;;;1.92;0.60;;;15.20;58.90;;;;;;5033087;28;20025;-47
2021/01/14 00:27:16;;;;;;;1.58;0.77;;;15.30;59.00;;;;;;5034166;28;20088;-47
2021/01/14 00:29:42;;;;;;;3.20;1.00;;;15.10;58.80;;;;;;5033323;28;20083;-47
2021/01/14 00:32:07;;;;;;;3.90;0.88;;;15.10;58.80;;;;;;5033052;28;20056;-47
2021/01/14 00:34:33;;;;;;;2.25;1.02;;;15.10;58.80;;;;;;5033313;28;20025;-49
2021/01/14 00:39:43;;;;;;;3.53;0.90;;;15.30;59.00;;;;;;5033230;28;20396;-48
2021/01/14 00:42:15;;;;;;;3.28;0.80;;;15.10;58.80;;;;;;5032941;28;20021;-47
2021/01/14 00:44:41;;;;;;;2.83;0.88;;;15.10;58.90;;;;;;5033097;28;20037;-48
2021/01/14 00:47:06;;;;;;;3.65;0.98;;;15.10;58.80;;;;;;5032901;28;20033;-47
2021/01/14 00:49:32;;;;;;;2.53;0.93;;;15.00;58.80;;;;;;5032724;28;20460;-47
2021/01/14 00:51:57;;;;;;;2.47;0.70;;;15.00;58.80;;;;;;5032842;28;20018;-46
2021/01/14 00:54:23;;;;;;;2.05;0.73;;;15.00;58.90;;;;;;5032772;28;20018;-49
2021/01/14 00:56:49;;;;;;;2.75;1.00;;;15.00;58.90;;;;;;5014678;28;20051;-48
2021/01/14 00:59:14;;;;;;;1.77;0.60;;;15.00;58.80;;;;;;5032899;28;20064;-48
2021/01/14 01:01:41;;;;;;;2.20;0.55;;;14.90;58.80;;;;;;5032713;28;20021;-48
2021/01/14 01:04:07;;;;;;;2.10;0.95;;;15.00;58.90;;;;;;5032344;28;20499;-48
2021/01/14 01:06:35;;;;;;;2.38;0.80;;;15.00;58.90;;;;;;5032761;28;20029;-47
2021/01/14 01:09:02;;;;;;;3.60;1.05;;;15.00;58.90;;;;;;5032265;28;20075;-47
2021/01/14 01:11:27;;;;;;;2.60;0.80;;;14.90;58.80;;;;;;5032696;28;20044;-49
2021/01/14 01:13:54;;;;;;;2.63;0.80;;;14.90;58.80;;;;;;5032341;28;20013;-48
2021/01/14 01:16:20;;;;;;;2.45;0.60;;;14.90;58.90;;;;;;5032296;28;20083;-47
2021/01/14 01:18:46;;;;;;;3.33;0.82;;;14.90;58.90;;;;;;5032204;28;20637;-46
2021/01/14 01:21:12;;;;;;;2.83;1.00;;;14.90;58.90;;;;;;5032282;28;20444;-48
2021/01/14 01:23:37;;;;;;;2.58;0.75;;;14.90;58.90;;;;;;5032541;28;20026;-47
2021/01/14 01:26:04;;;;;;;1.15;0.68;;;14.90;58.90;;;;;;5033204;28;20025;-47
2021/01/14 01:28:30;;;;;;;1.98;0.60;;;14.90;58.90;;;;;;5031765;28;20053;-46
2021/01/14 01:30:55;;;;;;;3.47;0.80;;;14.80;58.90;;;;;;5032267;28;20113;-48
2021/01/14 01:33:24;;;;;;;1.80;1.00;;;14.80;58.90;;;;;;5032376;28;20017;-49
2021/01/14 01:35:50;;;;;;;2.25;0.88;;;14.80;58.90;;;;;;5031841;28;20594;-50
2021/01/14 01:38:16;;;;;;;1.92;0.68;;;14.80;58.90;;;;;;5031917;28;20036;-47
2021/01/14 01:40:42;;;;;;;2.15;0.93;;;14.70;58.90;;;;;;5032232;28;20148;-47
2021/01/14 01:43:07;;;;;;;1.98;0.50;;;14.80;59.00;;;;;;5031812;28;20070;-46
2021/01/14 01:45:33;;;;;;;2.30;0.85;;;15.00;59.10;;;;;;5031844;28;20435;-47
2021/01/14 01:47:59;;;;;;;1.73;0.70;;;14.80;59.00;;;;;;5032019;28;20025;-46
2021/01/14 01:50:26;;;;;;;1.17;0.60;;;14.80;59.00;;;;;;5032053;28;20029;-47
2021/01/14 01:52:54;;;;;;;1.58;0.80;;;14.80;58.90;;;;;;5031766;28;20068;-47
2021/01/14 01:55:21;;;;;;;1.85;0.70;;;14.70;58.90;;;;;;5031787;28;20100;-49
2021/01/14 01:57:48;;;;;;;0.80;0.60;;;14.70;58.90;;;;;;5031925;28;20048;-48
2021/01/14 02:00:14;;;;;;;2.25;0.80;;;14.60;58.90;;;;;;5031706;28;20132;-46
2021/01/14 02:02:39;;;;;;;2.40;0.52;;;14.70;58.90;;;;;;5032059;28;20075;-49
2021/01/14 02:05:07;;;;;;;1.35;0.82;;;14.70;58.90;;;;;;5031764;28;20100;-48
2021/01/14 02:08:05;;;;;;;2.30;0.80;;;14.70;58.90;;;;;;5031686;28;20423;-47
2021/01/14 02:10:41;;;;;;;3.40;0.75;;;14.70;58.80;;;;;;5031430;28;20120;-47
2021/01/14 02:13:31;;;;;;;2.63;1.10;;;14.60;58.70;;;;;;5031857;28;20045;-48
2021/01/14 02:15:59;;;;;;;1.40;0.50;;;14.70;58.80;;;;;;5031732;28;20029;-47
2021/01/14 02:18:27;;;;;;;3.08;0.85;;;14.60;58.70;;;;;;5031900;28;20057;-47
2021/01/14 02:21:07;;;;;;;3.53;1.23;;;14.60;58.70;;;;;;5031904;28;20109;-47
2021/01/14 02:23:36;;;;;;;3.25;0.82;;;14.60;58.70;;;;;;5031824;28;20013;-46
2021/01/14 02:26:14;;;;;;;2.08;0.73;;;14.60;58.70;;;;;;5031857;28;20403;-46
2021/01/14 02:28:42;;;;;;;1.75;0.70;;;14.60;58.70;;;;;;5012137;28;20416;-46
2021/01/14 02:31:08;;;;;;;1.52;0.70;;;14.50;58.70;;;;;;5012023;28;20030;-47
2021/01/14 02:33:34;;;;;;;3.33;0.70;;;14.60;58.70;;;;;;5011973;28;20014;-48
2021/01/14 02:36:00;;;;;;;1.75;1.05;;;14.60;58.80;;;;;;5011933;28;20040;-48
2021/01/14 02:38:26;;;;;;;1.83;0.65;;;14.40;58.70;;;;;;5014562;28;20170;-48
2021/01/14 02:40:51;;;;;;;0.80;0.50;;;14.60;58.80;;;;;;5015720;28;20068;-47
2021/01/14 02:43:17;;;;;;;1.48;0.55;;;14.60;58.80;;;;;;5015519;28;20034;-47
2021/01/14 02:45:43;;;;;;;2.30;0.70;;;14.60;58.80;;;;;;5015695;28;20084;-48
2021/01/14 02:48:14;;;;;;;1.45;0.60;;;14.60;58.80;;;;;;5015443;28;20380;-47
2021/01/14 02:50:40;;;;;;;2.30;0.77;;;14.50;58.70;;;;;;5015383;28;20110;-47
2021/01/14 02:53:07;;;;;;;1.27;0.60;;;14.50;58.70;;;;;;5015511;28;20018;-47
2021/01/14 02:55:34;;;;;;;1.40;0.60;;;14.50;58.80;;;;;;4997603;28;20556;-47
2021/01/14 02:57:59;;;;;;;1.60;0.50;;;14.50;58.70;;;;;;5015197;28;20046;-48
2021/01/14 03:00:25;;;;;;;1.80;1.00;;;14.50;58.80;;;;;;5015398;28;20380;-47
2021/01/14 03:02:51;;;;;;;2.10;0.70;;;14.50;58.80;;;;;;5014965;28;20037;-48
2021/01/14 03:05:16;;;;;;;1.98;0.63;;;14.50;58.80;;;;;;5015178;28;20026;-47
2021/01/14 03:07:42;;;;;;;1.83;0.70;;;14.50;58.80;;;;;;5015312;28;20472;-48
2021/01/14 03:10:08;;;;;;;1.52;0.47;;;14.50;58.80;;;;;;5015111;28;20061;-49
2021/01/14 03:12:34;;;;;;;2.10;0.82;;;14.50;58.80;;;;;;5015151;28;20025;-47
2021/01/14 03:14:59;;;;;;;1.83;0.38;;;14.40;58.70;;;;;;5015030;28;20096;-47
2021/01/14 03:17:25;;;;;;;1.50;0.50;;;14.40;58.70;;;;;;5014604;28;20046;-49
2021/01/14 03:19:55;;;;;;;1.90;0.65;;;14.30;58.60;;;;;;5014924;28;20061;-47
2021/01/14 03:22:20;;;;;;;3.35;0.85;;;14.40;58.70;;;;;;5015249;28;20369;-46
2021/01/14 03:24:46;;;;;;;1.98;0.50;;;14.30;58.60;;;;;;5014830;28;20022;-47
2021/01/14 03:27:11;;;;;;;2.60;0.80;;;14.40;58.60;;;;;;5023518;28;20052;-48
2021/01/14 03:29:37;;;;;;;2.25;0.60;;;14.60;58.80;;;;;;5034635;28;20083;-48
2021/01/14 03:32:03;;;;;;;0.90;0.52;;;14.40;58.60;;;;;;5034241;28;20503;-49
2021/01/14 03:34:29;;;;;;;0.85;0.40;;;14.30;58.60;;;;;;5034591;28;20029;-49
2021/01/14 03:36:58;;;;;;;1.60;0.57;;;14.30;58.60;;;;;;5034142;28;20590;-47
2021/01/14 03:39:28;;;;;;;1.20;0.60;;;14.30;58.60;;;;;;5034382;28;20029;-47
2021/01/14 03:41:54;;;;;;;1.45;0.60;;;14.30;58.60;;;;;;5034227;28;20032;-49
2021/01/14 03:44:20;;;;;;;1.10;0.40;;;14.30;58.70;;;;;;5034107;28;20503;-46
2021/01/14 03:46:47;;;;;;;1.38;0.50;;;14.30;58.60;;;;;;5033966;28;20025;-48
2021/01/14 03:49:13;;;;;;;1.55;0.57;;;14.30;58.60;;;;;;5033060;28;20103;-46
2021/01/14 03:51:38;;;;;;;2.10;0.50;;;14.30;58.60;;;;;;5034104;28;20029;-47
2021/01/14 03:54:04;;;;;;;0.85;0.30;;;14.30;58.70;;;;;;5033788;28;20487;-47
2021/01/14 03:56:39;;;;;;;3.67;0.98;;;14.30;58.70;;;;;;5033989;28;20079;-49
2021/01/14 03:59:05;;;;;;;1.52;0.65;;;14.30;58.70;;;;;;5033870;28;20025;-46
2021/01/14 04:01:31;;;;;;;2.30;0.70;;;14.30;58.70;;;;;;5033744;28;20013;-48
2021/01/14 04:03:57;;;;;;;1.15;0.40;;;14.20;58.60;;;;;;5033958;28;20064;-47
2021/01/14 04:06:34;;;;;;;3.92;0.95;;;14.20;58.70;;;;;;5033919;28;20476;-47
2021/01/14 04:09:00;;;;;;;2.50;0.80;;;14.30;58.70;;;;;;5033891;28;20069;-47
2021/01/14 04:11:25;;;;;;;1.52;0.60;;;14.20;58.70;;;;;;5033869;28;20029;-47
2021/01/14 04:13:51;;;;;;;1.55;0.52;;;14.20;58.70;;;;;;5015961;28;20468;-50
2021/01/14 04:16:17;;;;;;;1.73;0.50;;;14.20;58.70;;;;;;5033368;28;20112;-47
2021/01/14 04:18:42;;;;;;;2.40;0.75;;;14.20;58.70;;;;;;5033630;28;20109;-46
2021/01/14 04:21:08;;;;;;;1.08;0.75;;;14.20;58.70;;;;;;5033166;28;20056;-47
2021/01/14 04:23:34;;;;;;;1.15;0.63;;;14.20;58.70;;;;;;5033562;28;20072;-47
2021/01/14 04:25:59;;;;;;;1.52;0.52;;;14.20;58.70;;;;;;5033227;28;20018;-49
2021/01/14 04:28:25;;;;;;;1.20;0.65;;;14.10;58.60;;;;;;5034349;28;20053;-47
2021/01/14 04:30:50;;;;;;;1.08;0.40;;;14.20;58.70;;;;;;5033168;28;20160;-49
2021/01/14 04:33:16;;;;;;;1.42;0.52;;;14.20;58.70;;;;;;5033377;28;20487;-46
2021/01/14 04:35:50;;;;;;;1.85;0.68;;;14.10;58.70;;;;;;5033320;28;20018;-49
2021/01/14 04:38:17;;;;;;;1.40;0.40;;;14.10;58.70;;;;;;5033212;28;20060;-47
2021/01/14 04:40:43;;;;;;;1.98;0.50;;;14.10;58.70;;;;;;5033203;28;20026;-47
2021/01/14 04:43:13;;;;;;;1.75;0.57;;;14.10;59.30;;;;;;5032890;28;20025;-46
2021/01/14 04:45:43;;;;;;;2.05;0.65;;;14.10;58.70;;;;;;5032982;28;20411;-46
2021/01/14 04:48:11;;;;;;;1.25;0.50;;;14.10;58.70;;;;;;5032956;28;20084;-47
2021/01/14 04:50:38;;;;;;;1.70;0.40;;;14.10;58.70;;;;;;5033176;28;20026;-46
2021/01/14 04:53:06;;;;;;;0.80;0.55;;;14.10;58.70;;;;;;5033105;28;20021;-47
2021/01/14 04:55:46;;;;;;;3.03;0.70;;;14.10;58.70;;;;;;5033132;28;20021;-46
2021/01/14 04:58:19;;;;;;;0.60;0.40;;;14.10;58.70;;;;;;5033038;28;20040;-48
2021/01/14 05:00:48;;;;;;;2.78;0.50;;;14.00;58.60;;;;;;5032484;28;20079;-47
2021/01/14 05:03:20;;;;;;;2.22;0.70;;;14.10;58.70;;;;;;5032693;28;20029;-47
2021/01/14 05:05:46;;;;;;;1.85;0.73;;;14.00;58.60;;;;;;5032871;28;20407;-47
2021/01/14 05:08:14;;;;;;;1.33;0.50;;;14.10;71.70;;;;;;5032747;28;20063;-47
2021/01/14 05:10:41;;;;;;;1.05;0.40;;;14.00;58.70;;;;;;5032836;28;20025;-47
2021/01/14 05:13:08;;;;;;;0.90;0.35;;;14.00;58.70;;;;;;5032477;28;20128;-46
2021/01/14 05:15:35;;;;;;;2.53;0.57;;;14.00;58.70;;;;;;5032574;28;20411;-48
2021/01/14 05:18:00;;;;;;;2.33;0.40;;;14.00;58.70;;;;;;5032165;28;20126;-47
2021/01/14 05:20:27;;;;;;;1.15;0.43;;;13.90;58.60;;;;;;5032237;28;20025;-49
2021/01/14 05:23:02;;;;;;;1.27;0.55;;;13.90;58.60;;;;;;5032445;28;20029;-46
2021/01/14 05:25:29;;;;;;;0.82;0.50;;;14.00;59.30;;;;;;5032137;28;20021;-46
2021/01/14 05:28:07;;;;;;;1.27;0.60;;;14.00;58.70;;;;;;5033104;28;20045;-47
2021/01/14 05:30:33;;;;;;;0.88;0.30;;;14.00;58.70;;;;;;5032328;28;20102;-48
2021/01/14 05:32:58;;;;;;;2.20;0.55;;;14.00;58.70;;;;;;5032112;28;20022;-48
2021/01/14 05:35:29;;;;;;;2.20;0.47;;;14.00;58.70;;;;;;5032449;28;20021;-50
2021/01/14 05:38:03;;;;;;;2.25;0.63;;;13.90;58.60;;;;;;5031867;28;20072;-48
2021/01/14 05:40:29;;;;;;;1.27;0.47;;;13.90;58.60;;;;;;5032454;28;20025;-47
2021/01/14 05:43:06;;;;;;;2.72;0.80;;;13.90;58.60;;;;;;5032070;28;20032;-49
2021/01/14 05:45:33;;;;;;;1.77;0.50;;;13.90;58.70;;;;;;5014250;28;20060;-51
2021/01/14 05:48:12;;;;;;;1.55;0.50;;;14.00;58.80;;;;;;5031952;28;20618;-47
2021/01/14 05:50:47;;;;;;;1.33;0.40;;;13.90;58.70;;;;;;5032189;28;20375;-48
2021/01/14 05:53:13;;;;;;;1.33;0.40;;;13.90;58.80;;;;;;5032056;28;20025;-46
2021/01/14 05:55:43;;;;;;;1.45;0.40;;;13.90;58.80;;;;;;5031775;28;20029;-50
2021/01/14 05:58:15;;;;;;;1.30;0.50;;;13.90;58.80;;;;;;5031976;28;20045;-46
2021/01/14 06:00:43;;;;;;;0.98;0.47;;;13.90;58.80;;;;;;5031680;28;20541;-47
2021/01/14 06:03:29;;;;;;;0.80;0.40;;;13.90;58.90;;;;;;5031630;28;20029;-47
2021/01/14 06:05:58;;;;;;;2.50;0.68;;;13.90;59.00;;;;;;5031648;28;20093;-48
2021/01/14 06:08:26;;;;;;;1.77;0.50;;;14.10;59.30;;;;;;5031647;28;20057;-47
2021/01/14 06:10:52;;;;;;;1.77;0.52;;;14.00;59.50;;;;;;5031966;28;20034;-47
2021/01/14 06:13:18;;;;;;;1.45;0.60;;;14.10;59.50;;;;;;5034163;28;20500;-49
2021/01/14 06:15:57;;;;;;;2.85;0.50;;;14.20;59.50;;;;;;5018008;28;20014;-47
2021/01/14 06:18:22;;;;;;;2.53;0.60;;;14.30;59.40;;;;;;5035858;28;20068;-46
2021/01/14 06:20:52;;;;;;;1.05;0.40;;;14.40;59.30;;;;;;5035604;28;20481;-48
2021/01/14 06:23:22;;;;;;;1.35;0.50;;;14.60;59.30;;;;;;5035554;28;20564;-46
2021/01/14 06:25:55;;;;;;;2.45;0.57;;;14.60;59.10;;;;;;5035802;28;20030;-48
2021/01/14 06:28:32;;;;;;;0.70;0.30;;;14.70;59.10;;;;;;5036354;28;20048;-47
2021/01/14 06:31:03;;;;;;;1.63;0.43;;;14.80;59.00;;;;;;5035620;28;20029;-47
2021/01/14 06:33:30;;;;;;;2.40;0.70;;;14.90;58.90;;;;;;5035541;28;20025;-47
2021/01/14 06:36:07;;;;;;;1.48;0.50;;;14.90;58.80;;;;;;5035523;28;20183;-47
2021/01/14 06:38:44;;;;;;;1.13;0.40;;;14.90;58.70;;;;;;5035416;28;20388;-47
2021/01/14 06:41:21;;;;;;;0.80;0.30;;;15.10;58.70;;;;;;5035153;28;20499;-48
2021/01/14 06:43:50;;;;;;;0.73;0.40;;;15.10;58.60;;;;;;5034998;28;20064;-48
2021/01/14 06:46:20;;;;;;;1.30;0.50;;;15.10;58.60;;;;;;5035410;28;20044;-48
2021/01/14 06:48:59;;;;;;;;;;;15.20;58.50;;;;;;5035778;28;20026;-49
2021/01/14 06:51:42;;;;;;;0.60;0.30;;;15.20;58.40;;;;;;5034968;28;19968;-46
2021/01/14 06:54:10;;;;;;;1.45;0.45;;;15.30;58.40;;;;;;5035223;28;20129;-47
2021/01/14 06:56:48;;;;;;;1.23;0.47;;;15.30;58.30;;;;;;5034839;28;20032;-47
2021/01/14 06:59:16;;;;;;;0.77;0.30;;;15.30;58.10;;;;;;5035104;28;20029;-47
2021/01/14 07:01:56;;;;;;;0.60;0.40;;;15.40;58.00;;;;;;5034773;28;20029;-47
2021/01/14 07:04:36;;;;;;;0.77;0.30;;;15.40;58.20;;;;;;5035111;28;20021;-46
2021/01/14 07:07:23;;;;;;;1.17;0.30;;;15.50;58.00;;;;;;5034924;28;20067;-48
2021/01/14 07:10:03;;;;;;;2.53;0.50;;;15.40;57.70;;;;;;5034491;28;20033;-47
2021/01/14 07:12:52;;;;;;;2.27;0.60;;;15.50;57.60;;;;;;5033429;28;20471;-49
2021/01/14 07:15:17;;;;;;;1.02;0.40;;;15.60;57.70;;;;;;5033728;28;20037;-48
2021/01/14 07:17:45;;;;;;;1.98;0.50;;;15.60;57.60;;;;;;5034481;28;20037;-48
2021/01/14 07:20:12;;;;;;;2.50;0.50;;;15.70;57.60;;;;;;5034501;28;20587;-47
2021/01/14 07:22:45;;;;;;;2.08;0.30;;;15.70;57.60;;;;;;5034727;28;20030;-48
2021/01/14 07:25:13;;;;;;;3.30;0.63;;;15.70;57.50;;;;;;5034616;28;20028;-47
2021/01/14 07:27:55;;;;;;;2.20;0.40;;;15.70;57.50;;;;;;5036706;28;20433;-46
2021/01/14 07:30:21;;;;;;;1.50;0.40;;;15.70;57.60;;;;;;5016339;28;20540;-47
2021/01/14 07:33:04;;;;;;;1.92;0.50;;;15.90;57.30;;;;;;5034325;28;20033;-48
2021/01/14 07:35:42;;;;;;;0.95;0.20;;;16.00;56.70;;;;;;5034317;28;20619;-46
2021/01/14 07:38:12;;;;;;;1.45;0.40;;;16.20;56.30;;;;;;5034320;28;20041;-48
2021/01/14 07:40:39;;;;;;;1.45;0.47;;;16.30;56.00;;;;;;5033881;28;20485;-49
2021/01/14 07:43:11;;;;;;;1.15;0.32;;;16.40;55.90;;;;;;5033254;28;20037;-47
2021/01/14 07:45:38;;;;;;;0.90;0.30;;;16.40;55.80;;;;;;5033233;28;20112;-49
2021/01/14 07:48:24;;;;;;;1.90;0.38;;;16.40;55.80;;;;;;5015152;28;20017;-48
2021/01/14 07:50:57;;;;;;;3.13;0.55;;;16.30;55.90;;;;;;5033662;28;20028;-47
2021/01/14 07:53:24;;;;;;;1.20;0.40;;;16.30;56.00;;;;;;5033705;28;20487;-48
2021/01/14 07:55:50;;;;;;;0.75;0.47;;;16.20;56.00;;;;;;5015995;28;20484;-47
2021/01/14 07:58:20;;;;;;;3.45;0.90;;;16.20;56.10;;;;;;5033567;28;20040;-48
2021/01/14 08:01:03;;;;;;;1.83;0.40;;;16.10;56.00;;;;;;5033979;28;20108;-48
2021/01/14 08:03:39;;;;;;;0.40;0.20;;;16.10;56.20;;;;;;5033669;28;20036;-48
2021/01/14 08:06:18;;;;;;;0.60;0.30;;;16.00;56.20;;;;;;5033857;28;20053;-49
2021/01/14 08:08:58;;;;;;;1.05;0.40;;;15.90;56.30;;;;;;5033637;28;20415;-49
2021/01/14 08:11:26;;;;;;;1.75;0.45;;;15.90;56.00;;;;;;5033700;28;20045;-47
2021/01/14 08:14:20;;;;;;;3.13;0.57;;;15.80;56.10;;;;;;5016095;28;20064;-48
2021/01/14 08:16:50;;;;;;;4.47;0.63;;;15.80;56.20;;;;;;5033602;28;20120;-47
2021/01/14 08:19:23;;;;;;;1.13;0.60;;;15.80;56.00;;;;;;5033182;28;20080;-47
2021/01/14 08:21:58;;;;;;;2.40;0.52;;;15.70;56.20;;;;;;5032838;28;20436;-48
2021/01/14 08:24:41;;;;;;;1.10;0.43;;;15.70;56.50;;;;;;5033248;28;20052;-47
2021/01/14 08:27:28;;;;;;;8.30;0.70;;;15.70;56.10;;;;;;5033467;28;20045;-47
2021/01/14 08:30:05;;;;;;;1.90;0.70;;;15.80;55.90;;;;;;5013614;28;20069;-48
2021/01/14 08:32:34;;;;;;;1.48;0.50;;;15.80;55.70;;;;;;5007612;28;20035;-47
2021/01/14 08:35:05;;;;;;;2.25;0.70;;;15.80;55.60;;;;;;4993398;28;20377;-48
2021/01/14 08:37:44;;;;;;;1.77;0.47;;;15.80;55.50;;;;;;5011887;28;20197;-48
2021/01/14 08:40:13;;;;;;;1.73;0.68;;;15.90;55.20;;;;;;5013232;28;20018;-48
2021/01/14 08:42:41;;;;;;;1.88;0.40;;;15.90;55.10;;;;;;5012938;28;20476;-55
2021/01/14 08:45:14;;;;;;;2.40;0.80;;;15.90;55.10;;;;;;5013123;28;20096;-47
2021/01/14 08:47:52;;;;;;;4.60;0.90;;;16.00;55.00;;;;;;5013295;28;20038;-46
2021/01/14 08:50:18;;;;;;;2.60;0.60;;;15.90;54.50;;;;;;5012960;28;20476;-46
2021/01/14 08:52:45;;;;;;;5.68;0.85;;;15.90;54.50;;;;;;5013218;28;20105;-46
2021/01/14 08:55:13;;;;;;;2.50;0.50;;;15.90;54.80;;;;;;5012869;28;20500;-46
2021/01/14 08:57:52;;;;;;;2.90;0.60;;;15.90;54.60;;;;;;5013050;28;20033;-46
2021/01/14 09:00:19;;;;;;;2.72;0.70;;;15.90;54.40;;;;;;5012732;28;20468;-46
2021/01/14 09:02:45;;;;;;;1.83;0.65;;;15.90;54.40;;;;;;5012792;28;20022;-47
2021/01/14 09:05:14;;;;;;;1.90;0.50;;;15.90;54.30;;;;;;5012019;28;20358;-45
2021/01/14 09:07:39;;;;;;;6.25;0.70;;;15.90;54.20;;;;;;5012545;28;20473;-46
2021/01/14 09:10:08;;;;;;;1.08;0.52;;;16.00;54.20;;;;;;5012634;28;20046;-47
2021/01/14 09:12:35;;;;;;;2.80;0.40;;;16.00;54.20;;;;;;5012875;28;20048;-46
2021/01/14 09:15:02;;;;;;;3.15;0.77;;;16.00;54.20;;;;;;5012653;28;20022;-46
2021/01/14 09:17:30;;;;;;;1.05;0.40;;;16.00;54.10;;;;;;5012644;28;20037;-46
2021/01/14 09:19:56;;;;;;;1.92;0.75;;;16.10;54.10;;;;;;5012484;28;20037;-47
2021/01/14 09:22:28;;;;;;;4.07;0.60;;;16.10;54.10;;;;;;5012688;28;20022;-47
2021/01/14 09:24:53;;;;;;;3.33;0.77;;;16.10;54.00;;;;;;5012606;28;20029;-46
2021/01/14 09:27:25;;;;;;;0.90;0.50;;;16.10;53.90;;;;;;5013129;28;20026;-46
2021/01/14 09:29:50;;;;;;;3.00;0.65;;;16.10;53.90;;;;;;5012601;28;20030;-46
2021/01/14 09:32:16;;;;;;;2.90;1.00;;;16.10;53.90;;;;;;5012507;28;20048;-46
2021/01/14 09:34:42;;;;;;;2.47;0.55;;;16.10;53.80;;;;;;5012659;28;20021;-46
2021/01/14 09:37:27;;;;;;;1.95;0.50;;;16.20;53.80;;;;;;5012123;28;20044;-47
2021/01/14 09:39:52;;;;;;;1.23;0.52;;;16.20;53.80;;;;;;5011528;28;20053;-46
2021/01/14 09:42:18;;;;;;;3.53;1.00;;;16.20;53.80;;;;;;4992568;28;20089;-47
2021/01/14 09:44:45;;;;;;;4.38;0.65;;;16.20;53.70;;;;;;4992477;28;20022;-48
2021/01/14 09:47:12;;;;;;;2.83;0.68;;;16.20;53.60;;;;;;4991666;28;20026;-46
2021/01/14 09:49:39;;;;;;;2.10;0.70;;;16.20;53.50;;;;;;4992765;28;20116;-46
2021/01/14 09:52:05;;;;;;;3.90;0.95;;;16.30;53.60;;;;;;4992612;28;20354;-47
2021/01/14 09:54:31;;;;;;;1.95;0.63;;;16.30;53.60;;;;;;4992407;28;20030;-45
2021/01/14 09:56:57;;;;;;;3.28;0.63;;;16.30;53.60;;;;;;4991031;28;20042;-46
2021/01/14 09:59:42;;;;;;;1.63;0.50;;;16.20;53.40;;;;;;4992458;28;20031;-48
2021/01/14 10:02:22;;;;;;;3.05;0.75;;;16.30;53.40;;;;;;4992865;28;20038;-48
2021/01/14 10:04:52;;;;;;;2.15;0.60;;;16.30;53.60;;;;;;4992772;28;20126;-48
2021/01/14 10:07:21;;;;;;;;;;;16.20;53.40;;;;;;4992748;28;20524;-48
2021/01/14 10:09:50;;;;;;;2.50;0.60;;;16.20;54.10;;;;;;4992674;28;20009;-48
2021/01/14 10:12:15;;;;;;;2.55;0.70;;;16.20;53.20;;;;;;4992409;28;20026;-50
2021/01/14 10:14:41;;;;;;;2.53;0.40;;;16.10;53.20;;;;;;4992580;28;20018;-48
2021/01/14 10:17:17;;;;;;;3.15;0.90;;;16.10;53.20;;;;;;4992456;28;20433;-52
2021/01/14 10:19:47;;;;;;;2.35;0.63;;;16.10;53.20;;;;;;4992542;28;20022;-48
2021/01/14 10:22:13;;;;;;;3.67;0.70;;;16.00;53.00;;;;;;4992565;28;20130;-48
2021/01/14 10:24:39;;;;;;;1.75;0.60;;;16.00;53.20;;;;;;4992221;28;20385;-49
2021/01/14 10:27:15;;;;;;;1.13;0.60;;;16.00;53.30;;;;;;4992167;28;20018;-47
2021/01/14 10:29:41;;;;;;;1.10;0.40;;;15.90;53.00;;;;;;5011793;28;20089;-47
2021/01/14 10:32:08;;;;;;;0.52;0.30;;;15.90;53.20;;;;;;5011989;28;20025;-48
2021/01/14 10:34:44;;;;;;;2.40;0.77;;;15.80;53.30;;;;;;5012005;28;20026;-50
2021/01/14 10:37:25;;;;;;;1.45;0.50;;;15.80;53.20;;;;;;5011837;28;20030;-48
2021/01/14 10:39:55;;;;;;;1.50;0.60;;;15.80;53.00;;;;;;5011983;28;20057;-50
2021/01/14 10:42:44;;;;;;;1.55;0.50;;;15.90;53.20;;;;;;5011633;28;20056;-47
2021/01/14 10:45:18;;;;;;;0.93;0.60;;;15.70;53.40;;;;;;4993870;28;20088;-52
2021/01/14 10:47:44;;;;;;;2.03;0.52;;;15.60;53.20;;;;;;5011630;28;20073;-48
2021/01/14 10:50:22;;;;;;;1.30;0.43;;;15.70;53.70;;;;;;5011879;28;20481;-48
2021/01/14 10:52:58;;;;;;;2.42;0.95;;;15.70;53.10;;;;;;5011517;28;20030;-47
2021/01/14 10:55:28;;;;;;;2.40;0.82;;;15.70;53.30;;;;;;5011510;28;20480;-49
2021/01/14 10:57:55;;;;;;;3.03;0.70;;;15.70;53.30;;;;;;5011986;28;20392;-49
2021/01/14 11:00:26;;;;;;;2.15;0.73;;;15.70;53.70;;;;;;5015455;28;20408;-50
2021/01/14 11:03:12;;;;;;;2.58;0.90;;;15.70;53.10;;;;;;5015342;28;20029;-47
2021/01/14 11:05:45;;;;;;;2.53;0.80;;;15.70;65.30;;;;;;5015213;28;20026;-47
2021/01/14 11:08:12;;;;;;;1.33;0.90;;;15.80;53.00;;;;;;4997383;28;20069;-50
2021/01/14 11:10:38;;;;;;;2.65;0.98;;;15.80;52.90;;;;;;5015136;28;20085;-47
2021/01/14 11:13:08;;;;;;;2.63;0.68;;;15.90;52.90;;;;;;5015307;28;20026;-47
2021/01/14 11:15:34;;;;;;;1.77;0.88;;;15.90;53.00;;;;;;5014768;28;20022;-48
2021/01/14 11:18:01;;;;;;;2.08;0.82;;;15.90;52.90;;;;;;5014804;28;20069;-47
2021/01/14 11:20:27;;;;;;;3.45;1.10;;;15.90;52.70;;;;;;5014537;28;20401;-47
2021/01/14 11:22:52;;;;;;;1.95;0.90;;;15.90;52.70;;;;;;5014656;28;20022;-48
2021/01/14 11:25:18;;;;;;;2.40;0.70;;;15.90;52.60;;;;;;5014850;28;20022;-49
2021/01/14 11:27:44;;;;;;;2.58;0.88;;;16.00;52.50;;;;;;5015888;28;20026;-48
2021/01/14 11:30:10;;;;;;;1.92;1.00;;;16.00;52.50;;;;;;4997053;28;20054;-48
2021/01/14 11:32:35;;;;;;;3.45;1.13;;;16.00;52.40;;;;;;5014533;28;20107;-48
2021/01/14 11:35:01;;;;;;;3.60;1.00;;;16.10;52.50;;;;;;5014023;28;20477;-47
2021/01/14 11:37:27;;;;;;;1.95;0.90;;;16.10;52.40;;;;;;5014564;28;20042;-47
2021/01/14 11:39:52;;;;;;;3.60;1.10;;;16.20;52.30;;;;;;5014655;28;20476;-49
2021/01/14 11:42:18;;;;;;;2.85;1.00;;;16.10;52.20;;;;;;5014191;28;20113;-50
2021/01/14 11:44:43;;;;;;;1.75;0.93;;;16.20;52.20;;;;;;5014683;28;20022;-47
2021/01/14 11:47:09;;;;;;;2.58;1.05;;;16.20;52.20;;;;;;5014445;28;20525;-48
2021/01/14 11:49:35;;;;;;;2.30;0.88;;;16.20;52.10;;;;;;5014353;28;20032;-47
2021/01/14 11:52:00;;;;;;;1.42;0.80;;;16.20;52.10;;;;;;5014312;28;20029;-47
2021/01/14 11:54:26;;;;;;;4.22;1.02;;;16.20;52.30;;;;;;4996455;28;20267;-49
2021/01/14 11:56:52;;;;;;;1.77;0.75;;;16.20;52.80;;;;;;5014225;28;20113;-49
2021/01/14 11:59:18;;;;;;;1.80;0.60;;;;;;;;;;4996305;28;20022;-47
2021/01/14 12:01:44;;;;;;;2.90;0.68;;;16.20;52.50;;;;;;5013895;28;20073;-49
2021/01/14 12:04:10;;;;;;;3.38;0.80;;;16.20;52.90;;;;;;5014212;28;20064;-50
2021/01/14 12:06:35;;;;;;;3.47;0.85;;;16.20;52.70;;;;;;5013810;28;20022;-51
2021/01/14 12:09:01;;;;;;;1.77;0.82;;;16.20;52.60;;;;;;4996549;28;20077;-52
2021/01/14 12:11:27;;;;;;;3.13;0.85;;;16.20;52.50;;;;;;5013358;28;20412;-48
2021/01/14 12:13:53;;;;;;;1.42;0.57;;;16.20;52.50;;;;;;5013716;28;20026;-52
2021/01/14 12:16:19;;;;;;;8.20;1.10;;;16.20;52.60;;;;;;5013590;28;20472;-50
2021/01/14 12:18:45;;;;;;;2.85;0.90;;;16.30;52.60;;;;;;5013655;28;20034;-52
2021/01/14 12:21:15;;;;;;;2.30;1.08;;;16.30;52.40;;;;;;5013657;28;20491;-48
2021/01/14 12:23:44;;;;;;;1.83;1.20;;;16.30;52.40;;;;;;5013850;28;20038;-50
2021/01/14 12:26:09;;;;;;;2.45;0.90;;;16.30;53.10;;;;;;5013798;28;20109;-49
2021/01/14 12:28:35;;;;;;;2.88;0.73;;;16.30;52.10;;;;;;5014386;28;20129;-51
2021/01/14 12:31:01;;;;;;;1.88;0.93;;;16.30;51.80;;;;;;5013763;28;20034;-49
2021/01/14 12:33:27;;;;;;;1.67;0.70;;;16.30;52.10;;;;;;5013666;28;20055;-50
2021/01/14 12:35:53;;;;;;;2.45;0.90;;;16.20;51.60;;;;;;5013403;28;20516;-52
2021/01/14 12:38:18;;;;;;;1.73;0.80;;;16.30;51.80;;;;;;5013531;28;20550;-49
2021/01/14 12:40:44;;;;;;;3.70;0.70;;;16.30;52.10;;;;;;5013623;28;20029;-51
2021/01/14 12:43:10;;;;;;;3.88;0.93;;;16.30;52.20;;;;;;5013476;28;20069;-49
2021/01/14 12:45:35;;;;;;;4.88;1.13;;;16.30;52.30;;;;;;5013118;28;20022;-52
2021/01/14 12:48:01;;;;;;;1.33;0.70;;;16.40;52.50;;;;;;5013091;28;20033;-50
2021/01/14 12:50:26;;;;;;;0.90;0.50;;;16.40;52.20;;;;;;5013280;28;20045;-51
2021/01/14 12:52:52;;;;;;;1.48;0.77;;;16.30;52.20;;;;;;5013240;28;20022;-52
2021/01/14 12:55:18;;;;;;;1.10;0.50;;;16.30;52.30;;;;;;5013549;28;20132;-50
2021/01/14 12:57:44;;;;;;;1.80;0.90;;;16.30;52.30;;;;;;5013091;28;20034;-50
2021/01/14 13:00:11;;;;;;;1.58;0.90;;;16.30;52.60;;;;;;5012972;28;20361;-50